AirNav   Everest Fuels
 
 361 users online  

96KY Woosley Field Airport
Calhoun, Kentucky, USA

GOING TO CALHOUN?


FAA INFORMATION EFFECTIVE 28 FEBRUARY 2019

Location

FAA Identifier: 96KY
Lat/Long: 37-33-08.0000N / 087-16-17.0000W
37-33.133333N / 087-16.283333W
37.5522222 / -87.2713889
(estimated)
Elevation: 465 ft. / 142 m (estimated)
Variation: 01W (1990)
From city: 1 mile NW of CALHOUN, KY
Time zone: UTC -6 (UTC -5 during Daylight Saving Time)
Zip code: 42327

Airport Operations

Airport use: Private use. Permission required prior to landing
Activation date: 12/1992
Control tower: no
ARTCC: INDIANAPOLIS CENTER
FSS: LOUISVILLE FLIGHT SERVICE STATION
Attendance: UNATNDD
Segmented circle: no

Airport Communications

WX AWOS-3PT at OWB (12 nm NE): 119.025 (270-683-3228)
WX AWOS-3 at 2I0 (13 nm SW): 126.475 (270-821-4554)

Nearby radio navigation aids

VOR radial/distance  VOR name  Freq  Var
CCTr359/10.2CENTRAL CITY VORTAC109.8001W
OWBr208/12.5OWENSBORO VOR/DME108.6004W
PXVr131/32.4POCKET CITY VORTAC113.3003E

 
NDB name  Hdg/Dist  Freq  Var  ID
HIGUY230/7.234104WOW --- .--

Airport Services

Runway Information

Runway 9/27

Dimensions: 1800 x 100 ft. / 549 x 30 m
Surface: turf
RUNWAY 9  RUNWAY 27
Traffic pattern: leftleft
Obstructions: none50 ft. trees, 400 ft. from runway

Airport Ownership and Management from official FAA records

Ownership: Privately-owned
Owner: MARTY WOOSLEY
P.O. BOX 525
CALHOUN, KY 42327
Phone (270) 499-0350
Manager: MARTY WOOSLEY
BOX 393 EVERETT CHERRY LANE
CALHOUN, KY 42327
Phone (270) 499-0350

Instrument Procedures

There are no published instrument procedures at 96KY.

Some nearby airports with instrument procedures:

KOWB - Owensboro-Daviess County Regional Airport (12 nm NE)
2I0 - Madisonville Regional Airport (13 nm SW)
M21 - Muhlenberg County Airport (20 nm S)
KJQD - Ohio County Airport (21 nm E)
KEHR - Henderson City-County Airport (25 nm NW)
 
Loc | Ops | Rwys | IFR | FBO | Links
Com | Nav | Svcs | Stats | Notes
Area around 96KY (Woosley Field Airport)
 
Road maps at: MapQuest Bing Google
 
Aerial photo
No photo
 
Sectional chart

 
Airport distance calculator
Flying to Woosley Field Airport? Find the distance to fly.

From to 96KY

Sunrise and sunset
Times for 20-Mar-2019
 Local
(UTC-5)
 Zulu
(UTC)
Morning civil twilight06:2811:28
Sunrise06:5411:54
Sunset19:0024:00
Evening civil twilight19:2600:26

Current date and time
Zulu (UTC)  20-Mar-2019 06:07:59
Local (UTC-5)  20-Mar-2019 01:07:59
 
METAR
KOWB 
11nm NE 
200556Z AUTO 00000KT 10SM CLR 05/M02 A3029 RMK AO2 SLP273 T00501022 10100 20050 401281011 58012
K2I0 
13nm SW 
200555Z AUTO 00000KT 10SM CLR 04/00 A3030 RMK AO2 T00351002 10097 20032 401321025
KM21 
20nm S 
200555Z AUTO 00000KT 10SM CLR 01/00 A3029 RMK AO2 T00051005 10096 20005 401261038
TAF
KOWB 
11nm NE 
200520Z 2006/2106 14003KT P6SM SCT070 OVC120 FM201500 19011G18KT P6SM SCT080 OVC150 FM201800 22014G22KT P6SM VCSH OVC080 FM202100 23012G19KT P6SM -SHRA OVC050 FM210000 25008KT 5SM -SHRA BR OVC025
NOTAMs
Click for the latest NOTAMs
NOTAMs are issued by the DoD/FAA and will open in a separate window not controlled by AirNav.

 

 
 

Would you like to see your business listed on this page?

 If your business provides an interesting product or service to pilots, flight crews, aircraft, or users of the Woosley Field Airport, you should consider listing it here.  To start the listing process, click on the button below
 
Add a business
 

Other Pages about Woosley Field Airport

Update a link
 
Copyright © AirNav, LLC. All rights reserved. Privacy Policy  Contact